KSRQ/SRQ METAR and TAF weather

Enter ICAO airport designator
Station Type Date Time Source
KSRQ METAR 2021/03/05 18:53 UTC NOAA

KSRQ 051853Z VRB03KT 10SM CLR 24/04 A2996 RMK AO2 SLP144 T02440044


Station Type Date Time Source
KSRQ Decoded METAR 2021/03/05 18:53 UTC NOAA

SARASOTA/BRADENTON INTERNATIONAL ., FL, United States (KSRQ) 27-24N 082-33W 18M
Mar 05, 2021 - 01:53 PM EST / 2021.03.05 1853 UTC
Wind: Variable at 3 MPH (3 KT):0
Visibility: 10 mile(s):0
Sky conditions: clear
Temperature: 75.9 F (24.4 C)
Dew Point: 39.9 F (4.4 C)
Relative Humidity: 27%
Pressure (altimeter): 29.96 in. Hg (1014 hPa)
ob: KSRQ 051853Z VRB03KT 10SM CLR 24/04 A2996 RMK AO2 SLP144 T02440044
cycle: 19

Station Type Date Time Source
KSRQ TAF 2021/03/05 18:39 UTC NOAA

TAF KSRQ 051736Z 0518/0618 24008KT P6SM SCT250
FM052100 29008KT P6SM SCT250
FM060000 VRB05KT P6SM BKN250
FM060900 08007KT P6SM SCT050 OVC150
FM061600 14008KT P6SM VCSH SCT030 BKN050 OVC100

Example: see airport list